sensor_id;sensor_type;location;lat;lon;timestamp;temperature;humidity
23637;DHT22;11995;50.842;4.456;2023-06-10T00:02:25;23.10;99.20
23637;DHT22;11995;50.842;4.456;2023-06-10T00:04:53;23.10;99.30
23637;DHT22;11995;50.842;4.456;2023-06-10T00:07:20;23.00;99.40
23637;DHT22;11995;50.842;4.456;2023-06-10T00:09:48;23.00;99.50
23637;DHT22;11995;50.842;4.456;2023-06-10T00:12:16;23.00;99.50
23637;DHT22;11995;50.842;4.456;2023-06-10T00:14:44;22.90;99.50
23637;DHT22;11995;50.842;4.456;2023-06-10T00:17:11;22.80;99.70
23637;DHT22;11995;50.842;4.456;2023-06-10T00:19:39;22.80;99.70
23637;DHT22;11995;50.842;4.456;2023-06-10T00:22:07;22.90;99.70
23637;DHT22;11995;50.842;4.456;2023-06-10T00:24:37;22.80;99.70
23637;DHT22;11995;50.842;4.456;2023-06-10T00:27:05;22.80;99.80
23637;DHT22;11995;50.842;4.456;2023-06-10T00:29:32;22.70;99.90
23637;DHT22;11995;50.842;4.456;2023-06-10T00:32:00;22.60;99.90
23637;DHT22;11995;50.842;4.456;2023-06-10T00:34:27;22.60;99.90
23637;DHT22;11995;50.842;4.456;2023-06-10T00:36:55;22.60;99.90
23637;DHT22;11995;50.842;4.456;2023-06-10T00:39:22;22.50;99.90
23637;DHT22;11995;50.842;4.456;2023-06-10T00:41:50;22.40;99.90
23637;DHT22;11995;50.842;4.456;2023-06-10T00:44:17;22.30;99.90
23637;DHT22;11995;50.842;4.456;2023-06-10T00:46:45;22.30;99.90
23637;DHT22;11995;50.842;4.456;2023-06-10T00:49:13;22.20;99.90
23637;DHT22;11995;50.842;4.456;2023-06-10T00:51:40;22.20;99.90
23637;DHT22;11995;50.842;4.456;2023-06-10T00:54:08;22.30;99.90
23637;DHT22;11995;50.842;4.456;2023-06-10T00:56:36;22.20;99.90
23637;DHT22;11995;50.842;4.456;2023-06-10T00:59:04;22.20;99.90
23637;DHT22;11995;50.842;4.456;2023-06-10T01:01:31;22.10;99.90
23637;DHT22;11995;50.842;4.456;2023-06-10T01:03:59;22.00;99.90
23637;DHT22;11995;50.842;4.456;2023-06-10T01:17:15;21.90;99.90
23637;DHT22;11995;50.842;4.456;2023-06-10T01:19:43;21.90;99.90
23637;DHT22;11995;50.842;4.456;2023-06-10T01:22:10;21.90;99.90
23637;DHT22;11995;50.842;4.456;2023-06-10T01:24:40;21.90;99.90
23637;DHT22;11995;50.842;4.456;2023-06-10T01:27:10;21.90;99.90
23637;DHT22;11995;50.842;4.456;2023-06-10T01:29:41;22.00;99.90
23637;DHT22;11995;50.842;4.456;2023-06-10T01:32:21;22.10;99.90
23637;DHT22;11995;50.842;4.456;2023-06-10T01:34:48;22.00;99.90
23637;DHT22;11995;50.842;4.456;2023-06-10T01:37:19;22.00;99.90
23637;DHT22;11995;50.842;4.456;2023-06-10T01:39:49;22.00;99.90
23637;DHT22;11995;50.842;4.456;2023-06-10T01:42:17;21.90;99.90
23637;DHT22;11995;50.842;4.456;2023-06-10T01:44:45;21.90;99.90
23637;DHT22;11995;50.842;4.456;2023-06-10T01:47:13;22.00;99.90
23637;DHT22;11995;50.842;4.456;2023-06-10T01:49:40;22.00;99.90
23637;DHT22;11995;50.842;4.456;2023-06-10T01:52:08;22.00;99.90
23637;DHT22;11995;50.842;4.456;2023-06-10T01:54:36;22.00;99.90
23637;DHT22;11995;50.842;4.456;2023-06-10T01:57:04;22.00;99.90
23637;DHT22;11995;50.842;4.456;2023-06-10T01:59:32;21.90;99.90
23637;DHT22;11995;50.842;4.456;2023-06-10T02:02:00;21.90;99.90
23637;DHT22;11995;50.842;4.456;2023-06-10T02:04:27;21.90;99.90
23637;DHT22;11995;50.842;4.456;2023-06-10T02:06:55;21.80;99.90
23637;DHT22;11995;50.842;4.456;2023-06-10T02:09:23;21.70;99.90
23637;DHT22;11995;50.842;4.456;2023-06-10T02:11:51;21.70;99.90
23637;DHT22;11995;50.842;4.456;2023-06-10T02:14:18;21.70;99.90
23637;DHT22;11995;50.842;4.456;2023-06-10T02:16:46;21.60;99.90
23637;DHT22;11995;50.842;4.456;2023-06-10T02:19:14;21.50;99.90
23637;DHT22;11995;50.842;4.456;2023-06-10T02:21:42;21.50;99.90
23637;DHT22;11995;50.842;4.456;2023-06-10T02:24:09;21.50;99.90
23637;DHT22;11995;50.842;4.456;2023-06-10T02:26:37;21.40;99.90
23637;DHT22;11995;50.842;4.456;2023-06-10T02:29:04;21.40;99.90
23637;DHT22;11995;50.842;4.456;2023-06-10T02:31:33;21.30;99.90
23637;DHT22;11995;50.842;4.456;2023-06-10T02:34:02;21.40;99.90
23637;DHT22;11995;50.842;4.456;2023-06-10T02:36:30;21.30;99.90
23637;DHT22;11995;50.842;4.456;2023-06-10T02:38:58;21.30;99.90
23637;DHT22;11995;50.842;4.456;2023-06-10T02:41:26;21.20;99.90
23637;DHT22;11995;50.842;4.456;2023-06-10T02:43:54;21.10;99.90
23637;DHT22;11995;50.842;4.456;2023-06-10T02:46:21;21.10;99.90
23637;DHT22;11995;50.842;4.456;2023-06-10T02:48:49;21.20;99.90
23637;DHT22;11995;50.842;4.456;2023-06-10T02:51:18;21.10;99.90
23637;DHT22;11995;50.842;4.456;2023-06-10T02:53:46;21.20;99.90
23637;DHT22;11995;50.842;4.456;2023-06-10T02:56:18;21.10;99.90
23637;DHT22;11995;50.842;4.456;2023-06-10T02:58:46;21.10;99.90
23637;DHT22;11995;50.842;4.456;2023-06-10T03:01:14;21.10;99.90
23637;DHT22;11995;50.842;4.456;2023-06-10T03:03:42;21.20;99.90
23637;DHT22;11995;50.842;4.456;2023-06-10T03:06:11;21.10;99.90
23637;DHT22;11995;50.842;4.456;2023-06-10T03:08:39;21.10;99.90
23637;DHT22;11995;50.842;4.456;2023-06-10T03:11:07;21.20;99.90
23637;DHT22;11995;50.842;4.456;2023-06-10T03:13:34;21.10;99.90
23637;DHT22;11995;50.842;4.456;2023-06-10T03:16:02;21.00;99.90
23637;DHT22;11995;50.842;4.456;2023-06-10T03:18:30;20.90;99.90
23637;DHT22;11995;50.842;4.456;2023-06-10T03:20:57;20.90;99.90
23637;DHT22;11995;50.842;4.456;2023-06-10T03:23:25;20.90;99.90
23637;DHT22;11995;50.842;4.456;2023-06-10T03:25:53;20.90;99.90
23637;DHT22;11995;50.842;4.456;2023-06-10T03:28:21;20.80;99.90
23637;DHT22;11995;50.842;4.456;2023-06-10T03:30:49;20.80;99.90
23637;DHT22;11995;50.842;4.456;2023-06-10T03:33:18;20.70;99.90
23637;DHT22;11995;50.842;4.456;2023-06-10T03:35:46;20.70;99.90
23637;DHT22;11995;50.842;4.456;2023-06-10T03:38:14;20.80;99.90
23637;DHT22;11995;50.842;4.456;2023-06-10T03:40:41;20.70;99.90
23637;DHT22;11995;50.842;4.456;2023-06-10T03:43:09;20.80;99.90
23637;DHT22;11995;50.842;4.456;2023-06-10T03:45:37;20.80;99.90
23637;DHT22;11995;50.842;4.456;2023-06-10T03:48:05;20.90;99.90
23637;DHT22;11995;50.842;4.456;2023-06-10T03:50:35;20.80;99.90
23637;DHT22;11995;50.842;4.456;2023-06-10T03:53:02;20.90;99.90
23637;DHT22;11995;50.842;4.456;2023-06-10T03:55:30;21.00;99.90
23637;DHT22;11995;50.842;4.456;2023-06-10T03:57:58;21.10;99.90
23637;DHT22;11995;50.842;4.456;2023-06-10T04:00:25;21.00;99.90
23637;DHT22;11995;50.842;4.456;2023-06-10T04:02:53;21.00;99.90
23637;DHT22;11995;50.842;4.456;2023-06-10T04:05:22;21.00;99.90
23637;DHT22;11995;50.842;4.456;2023-06-10T04:07:51;20.90;99.90
23637;DHT22;11995;50.842;4.456;2023-06-10T04:10:18;20.70;99.90
23637;DHT22;11995;50.842;4.456;2023-06-10T04:12:45;20.70;99.90
23637;DHT22;11995;50.842;4.456;2023-06-10T04:15:13;20.60;99.90
23637;DHT22;11995;50.842;4.456;2023-06-10T04:17:41;20.60;99.90
23637;DHT22;11995;50.842;4.456;2023-06-10T04:20:09;20.60;99.90
23637;DHT22;11995;50.842;4.456;2023-06-10T04:22:37;20.60;99.90
23637;DHT22;11995;50.842;4.456;2023-06-10T04:25:04;20.60;99.90
23637;DHT22;11995;50.842;4.456;2023-06-10T04:27:34;20.60;99.90
23637;DHT22;11995;50.842;4.456;2023-06-10T04:30:02;20.60;99.90
23637;DHT22;11995;50.842;4.456;2023-06-10T04:32:30;20.50;99.90
23637;DHT22;11995;50.842;4.456;2023-06-10T04:34:59;20.50;99.90
23637;DHT22;11995;50.842;4.456;2023-06-10T04:37:26;20.50;99.90
23637;DHT22;11995;50.842;4.456;2023-06-10T04:39:55;20.50;99.90
23637;DHT22;11995;50.842;4.456;2023-06-10T04:42:23;20.50;99.90
23637;DHT22;11995;50.842;4.456;2023-06-10T04:44:50;20.50;99.90
23637;DHT22;11995;50.842;4.456;2023-06-10T04:47:18;20.40;99.90
23637;DHT22;11995;50.842;4.456;2023-06-10T04:49:45;20.40;99.90
23637;DHT22;11995;50.842;4.456;2023-06-10T04:52:13;20.40;99.90
23637;DHT22;11995;50.842;4.456;2023-06-10T04:54:40;20.40;99.90
23637;DHT22;11995;50.842;4.456;2023-06-10T04:57:08;20.50;99.90
23637;DHT22;11995;50.842;4.456;2023-06-10T04:59:36;20.60;99.90
23637;DHT22;11995;50.842;4.456;2023-06-10T05:02:05;20.60;99.90
23637;DHT22;11995;50.842;4.456;2023-06-10T05:04:32;20.60;99.90
23637;DHT22;11995;50.842;4.456;2023-06-10T05:07:00;20.60;99.90
23637;DHT22;11995;50.842;4.456;2023-06-10T05:09:27;20.70;99.90
23637;DHT22;11995;50.842;4.456;2023-06-10T05:11:55;21.00;99.90
23637;DHT22;11995;50.842;4.456;2023-06-10T05:14:22;21.40;99.90
23637;DHT22;11995;50.842;4.456;2023-06-10T05:16:50;21.80;99.90
23637;DHT22;11995;50.842;4.456;2023-06-10T05:19:17;21.90;99.90
23637;DHT22;11995;50.842;4.456;2023-06-10T05:21:45;22.10;99.90
23637;DHT22;11995;50.842;4.456;2023-06-10T05:24:13;22.00;99.90
23637;DHT22;11995;50.842;4.456;2023-06-10T05:26:40;21.90;99.90
23637;DHT22;11995;50.842;4.456;2023-06-10T05:29:08;21.80;99.90
23637;DHT22;11995;50.842;4.456;2023-06-10T05:31:35;21.60;99.90
23637;DHT22;11995;50.842;4.456;2023-06-10T05:34:03;21.50;99.90
23637;DHT22;11995;50.842;4.456;2023-06-10T05:36:30;21.60;99.90
23637;DHT22;11995;50.842;4.456;2023-06-10T05:38:58;21.70;99.90
23637;DHT22;11995;50.842;4.456;2023-06-10T05:41:26;21.80;99.90
23637;DHT22;11995;50.842;4.456;2023-06-10T05:43:53;21.70;99.90
23637;DHT22;11995;50.842;4.456;2023-06-10T05:46:22;21.60;99.90
23637;DHT22;11995;50.842;4.456;2023-06-10T05:48:49;21.60;99.90
23637;DHT22;11995;50.842;4.456;2023-06-10T05:51:17;21.60;99.90
23637;DHT22;11995;50.842;4.456;2023-06-10T05:53:44;21.60;99.90
23637;DHT22;11995;50.842;4.456;2023-06-10T05:56:14;21.60;99.90
23637;DHT22;11995;50.842;4.456;2023-06-10T05:58:41;21.50;99.90
23637;DHT22;11995;50.842;4.456;2023-06-10T06:01:08;21.60;99.90
23637;DHT22;11995;50.842;4.456;2023-06-10T06:03:35;21.60;99.90
23637;DHT22;11995;50.842;4.456;2023-06-10T06:06:03;21.80;99.90
23637;DHT22;11995;50.842;4.456;2023-06-10T06:08:31;22.00;99.90
23637;DHT22;11995;50.842;4.456;2023-06-10T06:10:58;22.30;99.90
23637;DHT22;11995;50.842;4.456;2023-06-10T06:13:26;22.40;99.90
23637;DHT22;11995;50.842;4.456;2023-06-10T06:15:53;22.30;99.90
23637;DHT22;11995;50.842;4.456;2023-06-10T06:18:21;22.20;99.90
23637;DHT22;11995;50.842;4.456;2023-06-10T06:20:49;22.20;99.90
23637;DHT22;11995;50.842;4.456;2023-06-10T06:23:17;22.30;99.90
23637;DHT22;11995;50.842;4.456;2023-06-10T06:25:44;22.40;99.90
23637;DHT22;11995;50.842;4.456;2023-06-10T06:28:11;22.50;99.90
23637;DHT22;11995;50.842;4.456;2023-06-10T06:30:39;22.60;99.90
23637;DHT22;11995;50.842;4.456;2023-06-10T06:33:06;22.60;99.90
23637;DHT22;11995;50.842;4.456;2023-06-10T06:35:34;22.70;99.90
23637;DHT22;11995;50.842;4.456;2023-06-10T06:38:02;22.80;99.90
23637;DHT22;11995;50.842;4.456;2023-06-10T06:40:30;23.20;99.90
23637;DHT22;11995;50.842;4.456;2023-06-10T06:42:58;23.50;99.90
23637;DHT22;11995;50.842;4.456;2023-06-10T06:45:25;23.70;99.90
23637;DHT22;11995;50.842;4.456;2023-06-10T06:47:53;24.00;99.90
23637;DHT22;11995;50.842;4.456;2023-06-10T06:50:20;24.30;99.90
23637;DHT22;11995;50.842;4.456;2023-06-10T06:52:48;24.50;99.90
23637;DHT22;11995;50.842;4.456;2023-06-10T06:55:15;24.90;99.90
23637;DHT22;11995;50.842;4.456;2023-06-10T06:57:43;25.30;99.90
23637;DHT22;11995;50.842;4.456;2023-06-10T07:00:11;25.40;99.90
23637;DHT22;11995;50.842;4.456;2023-06-10T07:02:38;25.60;99.90
23637;DHT22;11995;50.842;4.456;2023-06-10T07:05:07;25.50;99.90
23637;DHT22;11995;50.842;4.456;2023-06-10T07:07:34;25.40;99.90
23637;DHT22;11995;50.842;4.456;2023-06-10T07:10:02;25.50;99.90
23637;DHT22;11995;50.842;4.456;2023-06-10T07:12:30;25.70;99.90
23637;DHT22;11995;50.842;4.456;2023-06-10T07:14:57;25.90;99.90
23637;DHT22;11995;50.842;4.456;2023-06-10T07:17:25;26.10;99.80
23637;DHT22;11995;50.842;4.456;2023-06-10T07:19:53;26.20;99.50
23637;DHT22;11995;50.842;4.456;2023-06-10T07:22:22;26.20;99.20
23637;DHT22;11995;50.842;4.456;2023-06-10T07:24:50;26.50;98.80
23637;DHT22;11995;50.842;4.456;2023-06-10T07:27:18;26.40;98.90
23637;DHT22;11995;50.842;4.456;2023-06-10T07:29:45;26.20;99.10
23637;DHT22;11995;50.842;4.456;2023-06-10T07:32:13;26.40;98.90
23637;DHT22;11995;50.842;4.456;2023-06-10T07:34:40;26.60;98.50
23637;DHT22;11995;50.842;4.456;2023-06-10T07:37:08;26.70;98.30
23637;DHT22;11995;50.842;4.456;2023-06-10T07:39:35;26.80;98.50
23637;DHT22;11995;50.842;4.456;2023-06-10T07:42:03;26.80;98.50
23637;DHT22;11995;50.842;4.456;2023-06-10T07:44:31;26.80;97.50
23637;DHT22;11995;50.842;4.456;2023-06-10T07:46:58;26.60;98.10
23637;DHT22;11995;50.842;4.456;2023-06-10T07:49:26;26.70;97.90
23637;DHT22;11995;50.842;4.456;2023-06-10T07:51:55;26.60;98.50
23637;DHT22;11995;50.842;4.456;2023-06-10T07:54:23;26.70;98.30
23637;DHT22;11995;50.842;4.456;2023-06-10T07:56:50;26.60;98.20
23637;DHT22;11995;50.842;4.456;2023-06-10T07:59:19;26.70;98.00
23637;DHT22;11995;50.842;4.456;2023-06-10T08:01:47;26.80;98.40
23637;DHT22;11995;50.842;4.456;2023-06-10T08:04:14;26.90;97.80
23637;DHT22;11995;50.842;4.456;2023-06-10T08:06:42;27.10;97.80
23637;DHT22;11995;50.842;4.456;2023-06-10T08:09:10;26.90;98.30
23637;DHT22;11995;50.842;4.456;2023-06-10T08:11:37;27.00;97.80
23637;DHT22;11995;50.842;4.456;2023-06-10T08:14:05;26.90;97.10
23637;DHT22;11995;50.842;4.456;2023-06-10T08:16:32;27.00;97.50
23637;DHT22;11995;50.842;4.456;2023-06-10T08:19:00;27.00;97.30
23637;DHT22;11995;50.842;4.456;2023-06-10T08:21:27;26.90;97.30
23637;DHT22;11995;50.842;4.456;2023-06-10T08:23:55;27.00;96.60
23637;DHT22;11995;50.842;4.456;2023-06-10T08:26:23;27.20;96.40
23637;DHT22;11995;50.842;4.456;2023-06-10T08:28:50;27.30;96.60
23637;DHT22;11995;50.842;4.456;2023-06-10T08:31:18;27.30;96.70
23637;DHT22;11995;50.842;4.456;2023-06-10T08:33:45;27.30;96.70
23637;DHT22;11995;50.842;4.456;2023-06-10T08:36:13;27.50;96.30
23637;DHT22;11995;50.842;4.456;2023-06-10T08:38:40;27.60;96.00
23637;DHT22;11995;50.842;4.456;2023-06-10T08:41:10;27.30;96.20
23637;DHT22;11995;50.842;4.456;2023-06-10T08:43:54;27.30;96.20
23637;DHT22;11995;50.842;4.456;2023-06-10T08:46:19;27.20;96.00
23637;DHT22;11995;50.842;4.456;2023-06-10T08:48:49;27.30;96.20
23637;DHT22;11995;50.842;4.456;2023-06-10T08:51:18;27.30;96.00
23637;DHT22;11995;50.842;4.456;2023-06-10T08:53:52;27.60;95.70
23637;DHT22;11995;50.842;4.456;2023-06-10T08:56:20;27.50;95.60
23637;DHT22;11995;50.842;4.456;2023-06-10T08:58:49;27.80;95.80
23637;DHT22;11995;50.842;4.456;2023-06-10T09:01:16;27.70;95.50
23637;DHT22;11995;50.842;4.456;2023-06-10T09:03:44;27.70;95.20
23637;DHT22;11995;50.842;4.456;2023-06-10T09:06:13;27.60;95.10
23637;DHT22;11995;50.842;4.456;2023-06-10T09:08:40;27.60;95.20
23637;DHT22;11995;50.842;4.456;2023-06-10T09:11:08;27.90;95.10
23637;DHT22;11995;50.842;4.456;2023-06-10T09:13:36;28.00;95.20
23637;DHT22;11995;50.842;4.456;2023-06-10T09:16:03;28.10;95.40
23637;DHT22;11995;50.842;4.456;2023-06-10T09:18:31;28.30;95.60
23637;DHT22;11995;50.842;4.456;2023-06-10T09:20:59;28.30;94.90
23637;DHT22;11995;50.842;4.456;2023-06-10T09:23:32;28.30;94.30
23637;DHT22;11995;50.842;4.456;2023-06-10T09:25:57;28.20;94.40
23637;DHT22;11995;50.842;4.456;2023-06-10T09:28:25;28.30;94.50
23637;DHT22;11995;50.842;4.456;2023-06-10T09:31:03;28.40;94.20
23637;DHT22;11995;50.842;4.456;2023-06-10T09:33:32;28.50;93.70
23637;DHT22;11995;50.842;4.456;2023-06-10T09:36:01;28.40;93.60
23637;DHT22;11995;50.842;4.456;2023-06-10T09:38:31;28.40;93.00
23637;DHT22;11995;50.842;4.456;2023-06-10T09:41:00;28.50;93.30
23637;DHT22;11995;50.842;4.456;2023-06-10T09:43:44;28.60;93.00
23637;DHT22;11995;50.842;4.456;2023-06-10T09:46:17;28.60;93.70
23637;DHT22;11995;50.842;4.456;2023-06-10T09:48:46;28.90;93.20
23637;DHT22;11995;50.842;4.456;2023-06-10T09:51:14;29.00;93.50
23637;DHT22;11995;50.842;4.456;2023-06-10T09:53:48;28.80;93.10
23637;DHT22;11995;50.842;4.456;2023-06-10T09:56:16;28.70;92.60
23637;DHT22;11995;50.842;4.456;2023-06-10T09:58:45;28.80;92.80
23637;DHT22;11995;50.842;4.456;2023-06-10T10:01:14;28.90;92.30
23637;DHT22;11995;50.842;4.456;2023-06-10T10:03:46;28.70;92.30
23637;DHT22;11995;50.842;4.456;2023-06-10T10:06:16;28.50;91.80
23637;DHT22;11995;50.842;4.456;2023-06-10T10:08:48;28.40;91.70
23637;DHT22;11995;50.842;4.456;2023-06-10T10:11:20;28.30;91.30
23637;DHT22;11995;50.842;4.456;2023-06-10T10:13:51;28.30;91.50
23637;DHT22;11995;50.842;4.456;2023-06-10T10:16:21;28.50;91.60
23637;DHT22;11995;50.842;4.456;2023-06-10T10:18:58;28.50;90.60
23637;DHT22;11995;50.842;4.456;2023-06-10T10:21:26;28.50;90.50
23637;DHT22;11995;50.842;4.456;2023-06-10T10:24:03;28.20;90.60
23637;DHT22;11995;50.842;4.456;2023-06-10T10:26:31;28.10;90.60
23637;DHT22;11995;50.842;4.456;2023-06-10T10:29:11;28.20;91.00
23637;DHT22;11995;50.842;4.456;2023-06-10T10:31:39;28.20;90.80
23637;DHT22;11995;50.842;4.456;2023-06-10T10:34:15;28.20;90.50
23637;DHT22;11995;50.842;4.456;2023-06-10T10:36:43;28.30;88.90
23637;DHT22;11995;50.842;4.456;2023-06-10T10:39:12;28.50;89.00
23637;DHT22;11995;50.842;4.456;2023-06-10T10:41:39;28.80;90.00
23637;DHT22;11995;50.842;4.456;2023-06-10T10:44:08;28.70;90.00
23637;DHT22;11995;50.842;4.456;2023-06-10T10:46:44;28.70;90.10
23637;DHT22;11995;50.842;4.456;2023-06-10T10:49:13;28.80;87.80
23637;DHT22;11995;50.842;4.456;2023-06-10T10:51:58;28.90;87.70
23637;DHT22;11995;50.842;4.456;2023-06-10T10:54:28;29.00;84.80
23637;DHT22;11995;50.842;4.456;2023-06-10T10:57:16;29.10;86.50
23637;DHT22;11995;50.842;4.456;2023-06-10T10:59:52;28.70;86.00
23637;DHT22;11995;50.842;4.456;2023-06-10T11:02:42;28.50;87.10
23637;DHT22;11995;50.842;4.456;2023-06-10T11:05:10;28.60;88.00
23637;DHT22;11995;50.842;4.456;2023-06-10T11:07:38;28.50;83.80
23637;DHT22;11995;50.842;4.456;2023-06-10T11:10:10;28.50;86.40
23637;DHT22;11995;50.842;4.456;2023-06-10T11:15:23;28.50;84.50
23637;DHT22;11995;50.842;4.456;2023-06-10T11:18:20;28.60;85.00
23637;DHT22;11995;50.842;4.456;2023-06-10T11:31:28;28.90;83.30
23637;DHT22;11995;50.842;4.456;2023-06-10T11:34:01;28.70;81.50
23637;DHT22;11995;50.842;4.456;2023-06-10T11:36:30;28.90;83.30
23637;DHT22;11995;50.842;4.456;2023-06-10T11:39:00;29.10;84.40
23637;DHT22;11995;50.842;4.456;2023-06-10T11:41:28;29.10;81.70
23637;DHT22;11995;50.842;4.456;2023-06-10T11:44:08;28.70;80.70
23637;DHT22;11995;50.842;4.456;2023-06-10T11:46:27;28.80;80.20
23637;DHT22;11995;50.842;4.456;2023-06-10T11:48:57;29.00;79.50
23637;DHT22;11995;50.842;4.456;2023-06-10T11:51:30;29.00;80.20
23637;DHT22;11995;50.842;4.456;2023-06-10T11:53:57;29.00;79.70
23637;DHT22;11995;50.842;4.456;2023-06-10T11:56:26;28.90;80.10
23637;DHT22;11995;50.842;4.456;2023-06-10T11:58:56;28.70;80.70
23637;DHT22;11995;50.842;4.456;2023-06-10T12:01:26;28.90;81.40
23637;DHT22;11995;50.842;4.456;2023-06-10T12:04:02;28.90;80.00
23637;DHT22;11995;50.842;4.456;2023-06-10T12:06:46;28.80;80.70
23637;DHT22;11995;50.842;4.456;2023-06-10T12:11:54;28.90;79.90
23637;DHT22;11995;50.842;4.456;2023-06-10T12:15:22;29.10;79.60
23637;DHT22;11995;50.842;4.456;2023-06-10T12:17:14;29.00;78.70
23637;DHT22;11995;50.842;4.456;2023-06-10T12:19:41;29.10;79.20
23637;DHT22;11995;50.842;4.456;2023-06-10T12:22:09;29.30;78.20
23637;DHT22;11995;50.842;4.456;2023-06-10T12:24:44;29.50;79.90
23637;DHT22;11995;50.842;4.456;2023-06-10T12:27:12;29.70;78.50
23637;DHT22;11995;50.842;4.456;2023-06-10T12:29:40;29.70;78.20
23637;DHT22;11995;50.842;4.456;2023-06-10T12:32:09;29.50;76.10
23637;DHT22;11995;50.842;4.456;2023-06-10T12:34:39;29.40;76.60
23637;DHT22;11995;50.842;4.456;2023-06-10T12:37:11;29.40;76.70
23637;DHT22;11995;50.842;4.456;2023-06-10T12:39:51;29.70;77.40
23637;DHT22;11995;50.842;4.456;2023-06-10T12:42:13;29.60;77.70
23637;DHT22;11995;50.842;4.456;2023-06-10T12:44:41;29.40;77.10
23637;DHT22;11995;50.842;4.456;2023-06-10T12:47:10;29.30;77.80
23637;DHT22;11995;50.842;4.456;2023-06-10T12:49:41;29.20;77.40
23637;DHT22;11995;50.842;4.456;2023-06-10T12:52:09;29.30;78.40
23637;DHT22;11995;50.842;4.456;2023-06-10T12:54:36;29.30;77.50
23637;DHT22;11995;50.842;4.456;2023-06-10T12:57:04;29.50;77.00
23637;DHT22;11995;50.842;4.456;2023-06-10T12:59:31;29.60;77.60
23637;DHT22;11995;50.842;4.456;2023-06-10T13:01:59;29.50;77.60
23637;DHT22;11995;50.842;4.456;2023-06-10T13:04:27;29.80;76.90
23637;DHT22;11995;50.842;4.456;2023-06-10T13:06:54;29.90;77.80
23637;DHT22;11995;50.842;4.456;2023-06-10T13:09:22;29.70;77.30
23637;DHT22;11995;50.842;4.456;2023-06-10T13:11:49;29.60;77.00
23637;DHT22;11995;50.842;4.456;2023-06-10T13:14:17;29.40;76.70
23637;DHT22;11995;50.842;4.456;2023-06-10T13:16:45;29.30;76.40
23637;DHT22;11995;50.842;4.456;2023-06-10T13:19:12;29.40;76.00
23637;DHT22;11995;50.842;4.456;2023-06-10T13:21:40;29.60;76.80
23637;DHT22;11995;50.842;4.456;2023-06-10T13:24:07;29.60;76.80
23637;DHT22;11995;50.842;4.456;2023-06-10T13:26:35;29.80;76.80
23637;DHT22;11995;50.842;4.456;2023-06-10T13:29:02;30.00;75.10
23637;DHT22;11995;50.842;4.456;2023-06-10T13:31:30;30.00;73.50
23637;DHT22;11995;50.842;4.456;2023-06-10T13:33:59;29.90;74.40
23637;DHT22;11995;50.842;4.456;2023-06-10T13:36:26;29.70;72.90
23637;DHT22;11995;50.842;4.456;2023-06-10T13:38:54;29.70;74.40
23637;DHT22;11995;50.842;4.456;2023-06-10T13:41:22;29.60;74.30
23637;DHT22;11995;50.842;4.456;2023-06-10T13:43:49;29.70;74.80
23637;DHT22;11995;50.842;4.456;2023-06-10T13:46:17;29.70;74.30
23637;DHT22;11995;50.842;4.456;2023-06-10T13:48:44;29.80;75.00
23637;DHT22;11995;50.842;4.456;2023-06-10T13:51:12;29.90;74.10
23637;DHT22;11995;50.842;4.456;2023-06-10T13:53:43;29.90;74.40
23637;DHT22;11995;50.842;4.456;2023-06-10T13:56:12;29.80;73.90
23637;DHT22;11995;50.842;4.456;2023-06-10T13:58:40;29.70;73.80
23637;DHT22;11995;50.842;4.456;2023-06-10T14:01:09;29.80;74.00
23637;DHT22;11995;50.842;4.456;2023-06-10T14:03:37;29.90;72.90
23637;DHT22;11995;50.842;4.456;2023-06-10T14:06:05;29.80;73.10
23637;DHT22;11995;50.842;4.456;2023-06-10T14:08:32;29.80;72.30
23637;DHT22;11995;50.842;4.456;2023-06-10T14:11:01;29.90;72.30
23637;DHT22;11995;50.842;4.456;2023-06-10T14:13:29;29.90;72.40
23637;DHT22;11995;50.842;4.456;2023-06-10T14:15:56;29.90;73.20
23637;DHT22;11995;50.842;4.456;2023-06-10T14:18:25;29.80;73.40
23637;DHT22;11995;50.842;4.456;2023-06-10T14:20:53;29.90;73.00
23637;DHT22;11995;50.842;4.456;2023-06-10T14:23:20;29.60;73.00
23637;DHT22;11995;50.842;4.456;2023-06-10T14:25:48;29.60;73.10
23637;DHT22;11995;50.842;4.456;2023-06-10T14:28:16;29.60;73.90
23637;DHT22;11995;50.842;4.456;2023-06-10T14:30:43;29.40;72.70
23637;DHT22;11995;50.842;4.456;2023-06-10T14:33:11;29.40;73.50
23637;DHT22;11995;50.842;4.456;2023-06-10T14:35:39;29.60;72.60
23637;DHT22;11995;50.842;4.456;2023-06-10T14:38:06;29.60;72.10
23637;DHT22;11995;50.842;4.456;2023-06-10T14:40:34;29.40;72.20
23637;DHT22;11995;50.842;4.456;2023-06-10T14:43:01;29.50;72.10
23637;DHT22;11995;50.842;4.456;2023-06-10T14:45:30;29.50;72.00
23637;DHT22;11995;50.842;4.456;2023-06-10T14:47:58;29.60;71.60
23637;DHT22;11995;50.842;4.456;2023-06-10T14:50:25;29.70;71.70
23637;DHT22;11995;50.842;4.456;2023-06-10T14:52:53;29.70;70.80
23637;DHT22;11995;50.842;4.456;2023-06-10T14:55:20;29.60;71.90
23637;DHT22;11995;50.842;4.456;2023-06-10T14:57:48;29.60;71.20
23637;DHT22;11995;50.842;4.456;2023-06-10T15:00:17;29.60;72.30
23637;DHT22;11995;50.842;4.456;2023-06-10T15:02:46;29.70;71.30
23637;DHT22;11995;50.842;4.456;2023-06-10T15:05:15;29.70;71.40
23637;DHT22;11995;50.842;4.456;2023-06-10T15:07:43;29.80;71.60
23637;DHT22;11995;50.842;4.456;2023-06-10T15:10:11;30.00;72.60
23637;DHT22;11995;50.842;4.456;2023-06-10T15:12:38;30.00;71.90
23637;DHT22;11995;50.842;4.456;2023-06-10T15:15:06;29.70;70.60
23637;DHT22;11995;50.842;4.456;2023-06-10T15:17:34;29.80;72.10
23637;DHT22;11995;50.842;4.456;2023-06-10T15:20:01;29.80;71.10
23637;DHT22;11995;50.842;4.456;2023-06-10T15:22:29;29.90;70.90
23637;DHT22;11995;50.842;4.456;2023-06-10T15:24:56;30.00;71.80
23637;DHT22;11995;50.842;4.456;2023-06-10T15:27:24;29.90;71.20
23637;DHT22;11995;50.842;4.456;2023-06-10T15:29:52;29.90;71.10
23637;DHT22;11995;50.842;4.456;2023-06-10T15:32:19;29.90;70.60
23637;DHT22;11995;50.842;4.456;2023-06-10T15:34:47;30.00;71.60
23637;DHT22;11995;50.842;4.456;2023-06-10T15:37:15;29.90;70.50
23637;DHT22;11995;50.842;4.456;2023-06-10T15:39:42;29.80;70.90
23637;DHT22;11995;50.842;4.456;2023-06-10T15:42:10;29.70;71.00
23637;DHT22;11995;50.842;4.456;2023-06-10T15:44:37;29.80;72.50
23637;DHT22;11995;50.842;4.456;2023-06-10T15:47:05;30.00;72.20
23637;DHT22;11995;50.842;4.456;2023-06-10T15:49:32;29.90;71.40
23637;DHT22;11995;50.842;4.456;2023-06-10T15:52:00;29.90;71.60
23637;DHT22;11995;50.842;4.456;2023-06-10T15:54:27;29.80;71.30
23637;DHT22;11995;50.842;4.456;2023-06-10T15:56:55;29.70;71.20
23637;DHT22;11995;50.842;4.456;2023-06-10T15:59:22;29.70;71.50
23637;DHT22;11995;50.842;4.456;2023-06-10T16:01:50;29.70;72.10
23637;DHT22;11995;50.842;4.456;2023-06-10T16:04:17;29.70;72.60
23637;DHT22;11995;50.842;4.456;2023-06-10T16:06:45;29.70;71.40